createdAt,value
2023-02-24T00:10:50.479Z,95582.06
2023-02-24T00:25:51.818Z,95576.69
2023-02-24T00:40:53.190Z,95560.09
2023-02-24T00:55:54.626Z,95544.50
2023-02-24T01:11:16.902Z,95545.31
2023-02-24T01:26:18.273Z,95529.38
2023-02-24T01:41:19.872Z,95516.16
2023-02-24T01:56:21.590Z,95492.31
2023-02-24T02:11:23.674Z,95489.72
2023-02-24T02:26:25.208Z,95493.97
2023-02-24T02:41:29.651Z,95472.53
2023-02-24T02:56:31.862Z,95470.44
2023-02-24T03:11:33.609Z,95450.28
2023-02-24T03:26:35.897Z,95442.22
2023-02-24T03:41:38.666Z,95439.78
2023-02-24T03:56:43.224Z,95430.69
2023-02-24T04:11:47.491Z,95426.63
2023-02-24T04:26:49.113Z,95415.41
2023-02-24T04:41:50.615Z,95398.84
2023-02-24T04:56:52.022Z,95387.50
2023-02-24T05:11:53.470Z,95366.69
2023-02-24T05:26:58.189Z,95357.28
2023-02-24T05:42:05.981Z,95339.91
2023-02-24T05:57:07.542Z,95328.72
2023-02-24T06:12:09.076Z,95327.75
2023-02-24T06:27:10.613Z,95315.41
2023-02-24T06:42:12.043Z,95308.91
2023-02-24T06:57:13.423Z,95308.06
2023-02-24T07:12:20.892Z,95290.34
2023-02-24T07:27:22.830Z,95285.78
2023-02-24T07:42:25.442Z,95283.81
2023-02-24T07:57:29.099Z,95258.22
2023-02-24T08:12:30.732Z,95254.78
2023-02-24T08:27:32.125Z,95246.00
2023-02-24T08:42:35.225Z,95234.91
2023-02-24T08:57:36.661Z,95220.34
2023-02-24T09:12:41.231Z,95209.44
2023-02-24T09:27:42.677Z,95201.66
2023-02-24T09:42:46.869Z,95197.31
2023-02-24T09:58:07.167Z,95177.47
2023-02-24T10:13:14.859Z,95164.41
2023-02-24T10:28:16.294Z,95164.22
2023-02-24T10:43:18.501Z,95159.41
2023-02-24T10:58:28.076Z,95141.53
2023-02-24T11:13:48.480Z,95120.97
2023-02-24T11:28:49.812Z,95090.50
2023-02-24T11:43:51.181Z,95066.44
2023-02-24T11:58:52.535Z,95039.78
2023-02-24T12:13:53.984Z,95013.44
2023-02-24T12:28:56.875Z,94994.19
2023-02-24T12:43:58.329Z,94950.63
2023-02-24T12:59:00.047Z,94932.25
2023-02-24T13:14:01.465Z,94904.31
2023-02-24T13:29:02.873Z,94897.22
2023-02-24T13:44:04.306Z,94880.78
2023-02-24T13:59:06.077Z,94866.69
2023-02-24T14:14:07.569Z,94840.75
2023-02-24T14:29:09.137Z,94813.63
2023-02-24T14:44:13.114Z,94802.66
2023-02-24T14:59:14.890Z,94784.91
2023-02-24T15:14:16.282Z,94772.94
2023-02-24T15:29:17.742Z,94761.50
2023-02-24T15:44:19.105Z,94730.78
2023-02-24T15:59:22.007Z,94703.72
2023-02-24T16:14:23.436Z,94685.72
2023-02-24T16:29:25.165Z,94694.78
2023-02-24T16:44:26.675Z,94680.44
2023-02-24T16:59:28.117Z,94677.75
2023-02-24T17:14:29.489Z,94676.44
2023-02-24T17:29:30.899Z,94665.06
2023-02-24T17:44:32.306Z,94675.09
2023-02-24T17:59:33.698Z,94676.25
2023-02-24T18:14:35.082Z,94663.28
2023-02-24T18:29:36.453Z,94675.66
2023-02-24T18:44:37.858Z,94664.47
2023-02-24T18:59:39.390Z,94659.34
2023-02-24T19:14:40.802Z,94674.19
2023-02-24T19:29:42.192Z,94680.63
2023-02-24T19:44:43.590Z,94679.31
2023-02-24T19:59:45.233Z,94679.66
2023-02-24T20:14:46.640Z,94687.50
2023-02-24T20:29:48.001Z,94673.94
2023-02-24T20:44:49.385Z,94704.03
2023-02-24T21:00:02.730Z,94721.16
2023-02-24T21:15:04.792Z,94750.50
2023-02-24T21:30:06.152Z,94750.53
2023-02-24T21:45:09.787Z,94769.34
2023-02-24T22:00:30.234Z,94772.50
2023-02-24T22:15:31.646Z,94770.59
2023-02-24T22:30:33.099Z,94770.41
2023-02-24T22:45:34.539Z,94779.44
2023-02-24T23:00:35.949Z,94792.53
2023-02-24T23:15:38.976Z,94810.94
2023-02-24T23:30:40.444Z,94823.06
2023-02-24T23:45:41.989Z,94834.13
